createdAt,value
2018-08-28T00:00:03.544Z,3.50
2018-08-28T00:02:32.830Z,4.17
2018-08-28T00:05:03.155Z,3.10
2018-08-28T00:07:32.477Z,3.43
2018-08-28T00:10:01.831Z,3.17
2018-08-28T00:12:31.149Z,4.07
2018-08-28T00:15:00.526Z,3.40
2018-08-28T00:17:29.892Z,3.10
2018-08-28T00:19:59.277Z,4.13
2018-08-28T00:22:28.614Z,3.10
2018-08-28T00:24:58.046Z,3.23
2018-08-28T00:27:27.452Z,3.23
2018-08-28T00:29:56.758Z,4.43
2018-08-28T00:32:26.132Z,3.90
2018-08-28T00:34:55.419Z,3.23
2018-08-28T00:37:24.748Z,4.53
2018-08-28T00:39:54.038Z,3.17
2018-08-28T00:42:23.394Z,3.17
2018-08-28T00:44:52.703Z,2.87
2018-08-28T00:47:22.050Z,3.07
2018-08-28T00:49:51.450Z,2.80
2018-08-28T00:52:20.828Z,2.60
2018-08-28T00:54:50.315Z,3.23
2018-08-28T00:57:19.644Z,2.33
2018-08-28T00:59:48.919Z,3.10
2018-08-28T01:02:18.207Z,2.87
2018-08-28T01:04:47.484Z,2.50
2018-08-28T01:07:16.799Z,3.03
2018-08-28T01:09:46.063Z,4.17
2018-08-28T01:12:15.399Z,5.40
2018-08-28T01:14:44.742Z,3.57
2018-08-28T01:17:14.153Z,4.20
2018-08-28T01:19:43.447Z,2.70
2018-08-28T01:22:12.706Z,2.67
2018-08-28T01:24:42.026Z,3.50
2018-08-28T01:27:11.370Z,4.23
2018-08-28T01:29:40.666Z,4.20
2018-08-28T01:32:09.958Z,4.07
2018-08-28T01:34:39.258Z,4.33
2018-08-28T01:37:08.600Z,4.67
2018-08-28T01:39:37.955Z,4.10
2018-08-28T01:42:07.259Z,4.70
2018-08-28T01:44:36.611Z,4.63
2018-08-28T01:47:06.239Z,6.60
2018-08-28T01:49:35.559Z,4.90
2018-08-28T01:52:04.879Z,4.50
2018-08-28T01:54:34.262Z,4.30
2018-08-28T01:57:03.575Z,5.80
2018-08-28T01:59:32.898Z,4.80
2018-08-28T02:02:02.313Z,4.43
2018-08-28T02:04:31.702Z,6.47
2018-08-28T02:07:01.042Z,4.70
2018-08-28T02:09:30.400Z,4.70
2018-08-28T02:11:59.715Z,6.03
2018-08-28T02:14:29.066Z,5.83
2018-08-28T02:16:58.362Z,5.00
2018-08-28T02:19:27.713Z,6.10
2018-08-28T02:21:57.003Z,4.60
2018-08-28T02:24:26.324Z,4.93
2018-08-28T02:26:55.759Z,4.70
2018-08-28T02:29:25.087Z,4.40
2018-08-28T02:31:54.435Z,5.10
2018-08-28T02:34:23.727Z,4.77
2018-08-28T02:36:53.118Z,4.00
2018-08-28T02:39:22.422Z,4.17
2018-08-28T02:41:51.731Z,5.60
2018-08-28T02:44:21.028Z,5.93
2018-08-28T02:46:50.335Z,4.83
2018-08-28T02:49:19.991Z,5.00
2018-08-28T02:51:49.774Z,5.23
2018-08-28T02:54:19.117Z,5.63
2018-08-28T02:56:48.441Z,4.60
2018-08-28T02:59:17.764Z,5.23
2018-08-28T03:01:47.107Z,5.93
2018-08-28T03:04:16.413Z,5.70
2018-08-28T03:06:45.965Z,6.10
2018-08-28T03:09:15.246Z,5.37
2018-08-28T03:11:44.575Z,6.80
2018-08-28T03:14:13.877Z,7.30
2018-08-28T03:16:43.180Z,6.40
2018-08-28T03:19:12.496Z,8.50
2018-08-28T03:21:41.867Z,7.53
2018-08-28T03:24:11.270Z,7.97
2018-08-28T03:26:40.980Z,8.37
2018-08-28T03:29:10.336Z,9.00
2018-08-28T03:31:39.574Z,7.90
2018-08-28T03:34:08.899Z,9.37
2018-08-28T03:36:38.207Z,11.27
2018-08-28T03:39:07.527Z,9.07
2018-08-28T03:41:36.870Z,11.10
2018-08-28T03:44:06.192Z,10.50
2018-08-28T03:46:35.493Z,10.57
2018-08-28T03:49:04.875Z,11.13
2018-08-28T03:51:34.166Z,10.90
2018-08-28T03:54:03.542Z,10.20
2018-08-28T03:56:32.862Z,10.17
2018-08-28T03:59:02.176Z,11.40
2018-08-28T04:01:31.450Z,12.17
2018-08-28T04:04:01.155Z,12.47
2018-08-28T04:06:30.540Z,13.10
2018-08-28T04:08:59.870Z,10.37
2018-08-28T04:11:29.179Z,10.40
2018-08-28T04:13:58.453Z,9.63
2018-08-28T04:16:27.855Z,10.80
2018-08-28T04:18:57.130Z,11.40
2018-08-28T04:21:26.452Z,9.60
2018-08-28T04:23:55.833Z,10.30
2018-08-28T04:26:25.452Z,10.33
2018-08-28T04:28:54.766Z,11.60
2018-08-28T04:31:24.085Z,11.37
2018-08-28T04:33:53.359Z,11.83
2018-08-28T04:36:22.687Z,11.93
2018-08-28T04:38:52.291Z,11.70
2018-08-28T04:41:21.631Z,13.20
2018-08-28T04:43:50.949Z,12.87
2018-08-28T04:46:20.287Z,13.20
2018-08-28T04:48:49.651Z,13.67
2018-08-28T04:51:19.002Z,12.50
2018-08-28T04:53:48.346Z,15.40
2018-08-28T04:56:17.886Z,13.60
2018-08-28T04:58:47.174Z,15.60
2018-08-28T05:01:16.504Z,13.90
2018-08-28T05:03:46.263Z,13.33
2018-08-28T05:06:15.627Z,12.50
2018-08-28T05:08:44.926Z,12.70
2018-08-28T05:11:14.255Z,13.67
2018-08-28T05:13:43.620Z,11.50
2018-08-28T05:16:12.945Z,15.53
2018-08-28T05:18:42.275Z,14.20
2018-08-28T05:21:11.616Z,13.87
2018-08-28T05:23:40.993Z,13.77
2018-08-28T05:26:10.322Z,15.03
2018-08-28T05:28:39.770Z,13.73
2018-08-28T05:31:09.109Z,13.57
2018-08-28T05:33:38.455Z,12.97
2018-08-28T05:36:07.775Z,12.47
2018-08-28T05:38:37.111Z,12.00
2018-08-28T05:41:06.439Z,12.83
2018-08-28T05:43:35.794Z,13.13
2018-08-28T05:46:05.117Z,13.50
2018-08-28T05:48:34.463Z,13.50
2018-08-28T05:51:03.782Z,13.77
2018-08-28T05:53:33.114Z,13.27
2018-08-28T05:56:02.459Z,14.30
2018-08-28T05:58:31.752Z,13.67
2018-08-28T06:01:01.067Z,13.37
2018-08-28T06:03:30.503Z,13.80
2018-08-28T06:05:59.707Z,13.37
2018-08-28T06:08:29.097Z,13.87
2018-08-28T06:10:58.378Z,15.47
2018-08-28T06:13:27.683Z,15.30
2018-08-28T06:15:57.014Z,15.30
2018-08-28T06:18:26.351Z,15.77
2018-08-28T06:20:55.692Z,14.57
2018-08-28T06:23:24.996Z,14.33
2018-08-28T06:25:54.320Z,14.80
2018-08-28T06:28:23.631Z,13.90
2018-08-28T06:30:52.994Z,14.40
2018-08-28T06:33:22.284Z,14.80
2018-08-28T06:35:51.606Z,11.40
2018-08-28T06:38:20.927Z,14.77
2018-08-28T06:40:50.290Z,12.30
2018-08-28T06:43:19.633Z,12.17
2018-08-28T06:45:48.992Z,11.87
2018-08-28T06:48:18.407Z,10.67
2018-08-28T06:50:47.778Z,11.30
2018-08-28T06:53:17.084Z,12.03
2018-08-28T06:55:46.428Z,13.60
2018-08-28T06:58:15.714Z,11.47
2018-08-28T07:00:45.060Z,11.90
2018-08-28T07:03:14.585Z,10.83
2018-08-28T07:05:43.957Z,12.33
2018-08-28T07:08:13.236Z,11.10
2018-08-28T07:10:42.720Z,11.37
2018-08-28T07:13:12.072Z,12.20
2018-08-28T07:15:41.409Z,10.47
2018-08-28T07:18:10.695Z,11.60
2018-08-28T07:20:40.013Z,10.13
2018-08-28T07:23:09.310Z,10.27
2018-08-28T07:25:39.078Z,9.77
2018-08-28T07:28:08.351Z,9.43
2018-08-28T07:30:37.682Z,9.90
2018-08-28T07:33:06.993Z,9.17
2018-08-28T07:35:36.283Z,8.50
2018-08-28T07:38:05.648Z,9.73
2018-08-28T07:40:34.946Z,8.50
2018-08-28T07:43:04.294Z,9.10
2018-08-28T07:45:39.800Z,6.97
2018-08-28T07:48:09.179Z,8.57
2018-08-28T07:50:38.473Z,6.70
2018-08-28T07:53:07.788Z,7.20
2018-08-28T07:55:37.099Z,8.43
2018-08-28T07:58:06.394Z,8.03
2018-08-28T08:00:35.774Z,7.30
2018-08-28T08:03:05.166Z,7.03
2018-08-28T08:05:34.563Z,7.70
2018-08-28T08:08:04.341Z,6.53
2018-08-28T08:10:33.755Z,7.97
2018-08-28T08:13:03.017Z,7.50
2018-08-28T08:15:32.451Z,11.60
2018-08-28T08:18:01.774Z,7.03
2018-08-28T08:20:31.099Z,6.67
2018-08-28T08:23:00.429Z,10.00
2018-08-28T08:25:30.093Z,8.53
2018-08-28T08:27:59.469Z,6.17
2018-08-28T08:30:28.822Z,7.50
2018-08-28T08:32:58.159Z,6.23
2018-08-28T08:35:27.622Z,9.43
2018-08-28T08:37:56.942Z,6.27
2018-08-28T08:40:26.279Z,5.70
2018-08-28T08:42:55.590Z,8.83
2018-08-28T08:45:24.865Z,5.47
2018-08-28T08:47:54.152Z,6.27
2018-08-28T08:50:23.502Z,5.47
2018-08-28T08:52:52.827Z,7.57
2018-08-28T08:55:22.247Z,6.30
2018-08-28T08:57:51.514Z,5.87
2018-08-28T09:00:20.838Z,7.23
2018-08-28T09:02:50.142Z,6.90
2018-08-28T09:05:19.488Z,5.77
2018-08-28T09:07:48.987Z,6.50
2018-08-28T09:10:18.338Z,6.50
2018-08-28T09:12:48.127Z,6.43
2018-08-28T09:15:17.646Z,6.03
2018-08-28T09:17:46.946Z,4.83
2018-08-28T09:20:16.255Z,6.00
2018-08-28T09:22:45.545Z,6.87
2018-08-28T09:25:14.939Z,5.77
2018-08-28T09:27:44.361Z,5.10
2018-08-28T09:30:13.681Z,6.50
2018-08-28T09:32:42.971Z,7.70
2018-08-28T09:35:12.299Z,5.43
2018-08-28T09:37:41.578Z,5.43
2018-08-28T09:40:10.998Z,4.77
2018-08-28T09:42:40.278Z,5.10
2018-08-28T09:45:09.626Z,5.33
2018-08-28T09:47:38.933Z,6.10
2018-08-28T09:50:08.278Z,6.00
2018-08-28T09:52:37.599Z,8.37
2018-08-28T09:55:06.911Z,5.33
2018-08-28T09:57:36.259Z,5.20
2018-08-28T10:00:06.586Z,4.90
2018-08-28T10:02:36.187Z,6.40
2018-08-28T10:05:05.784Z,5.13
2018-08-28T10:07:35.127Z,8.57
2018-08-28T10:10:04.428Z,5.03
2018-08-28T10:12:33.808Z,5.40
2018-08-28T10:15:03.158Z,6.87
2018-08-28T10:17:32.561Z,5.00
2018-08-28T10:20:01.953Z,5.87
2018-08-28T10:22:31.327Z,5.83
2018-08-28T10:25:00.966Z,5.03
2018-08-28T10:27:30.612Z,5.70
2018-08-28T10:29:59.978Z,5.20
2018-08-28T10:32:29.303Z,7.30
2018-08-28T10:34:58.756Z,4.83
2018-08-28T10:37:28.114Z,5.90
2018-08-28T10:39:57.417Z,5.80
2018-08-28T10:42:26.774Z,6.87
2018-08-28T10:44:56.094Z,4.90
2018-08-28T10:47:25.424Z,5.20
2018-08-28T10:49:54.814Z,5.90
2018-08-28T10:52:24.143Z,5.93
2018-08-28T10:54:53.476Z,5.53
2018-08-28T10:57:22.776Z,5.57
2018-08-28T10:59:52.172Z,5.27
2018-08-28T11:02:21.471Z,5.63
2018-08-28T11:04:50.790Z,5.30
2018-08-28T11:07:20.100Z,4.80
2018-08-28T11:09:49.410Z,4.73
2018-08-28T11:12:18.706Z,5.23
2018-08-28T11:14:48.002Z,4.67
2018-08-28T11:17:17.303Z,5.70
2018-08-28T11:19:46.655Z,4.83
2018-08-28T11:22:15.952Z,6.43
2018-08-28T11:24:45.298Z,4.30
2018-08-28T11:27:14.648Z,6.07
2018-08-28T11:29:43.946Z,6.47
2018-08-28T11:32:13.228Z,5.63
2018-08-28T11:34:42.561Z,6.50
2018-08-28T11:37:11.841Z,4.37
2018-08-28T11:39:41.458Z,5.83
2018-08-28T11:42:10.780Z,5.53
2018-08-28T11:44:40.143Z,5.10
2018-08-28T11:47:09.486Z,5.60
2018-08-28T11:49:38.725Z,5.30
2018-08-28T11:52:08.052Z,7.00
2018-08-28T11:54:37.360Z,5.93
2018-08-28T11:57:06.686Z,5.30
2018-08-28T11:59:35.966Z,4.00
2018-08-28T12:02:05.351Z,7.33
2018-08-28T12:04:34.651Z,5.20
2018-08-28T12:07:04.040Z,4.83
2018-08-28T12:09:33.273Z,4.17
2018-08-28T12:12:02.586Z,5.40
2018-08-28T12:14:31.865Z,5.40
2018-08-28T12:17:01.217Z,4.90
2018-08-28T12:19:30.556Z,4.57
2018-08-28T12:21:59.874Z,4.70
2018-08-28T12:24:29.189Z,5.33
2018-08-28T12:26:58.506Z,4.50
2018-08-28T12:29:27.826Z,4.73
2018-08-28T12:31:57.150Z,4.93
2018-08-28T12:34:26.447Z,4.90
2018-08-28T12:36:55.864Z,5.10
2018-08-28T12:39:25.087Z,3.83
2018-08-28T12:41:54.413Z,4.77
2018-08-28T12:44:23.689Z,4.77
2018-08-28T12:46:53.012Z,4.53
2018-08-28T12:49:22.291Z,4.93
2018-08-28T12:51:51.646Z,4.77
2018-08-28T12:54:20.962Z,7.00
2018-08-28T12:56:50.284Z,5.10
2018-08-28T12:59:19.582Z,4.90
2018-08-28T13:01:48.892Z,5.73
2018-08-28T13:04:18.278Z,7.27
2018-08-28T13:06:47.629Z,4.87
2018-08-28T13:09:17.010Z,6.70
2018-08-28T13:11:46.308Z,6.47
2018-08-28T13:14:15.635Z,5.60
2018-08-28T13:16:44.947Z,4.97
2018-08-28T13:19:14.271Z,4.97
2018-08-28T13:21:43.606Z,6.37
2018-08-28T13:24:12.935Z,5.10
2018-08-28T13:26:42.274Z,7.57
2018-08-28T13:29:11.635Z,4.03
2018-08-28T13:36:27.075Z,7.60
2018-08-28T13:38:56.395Z,4.67
2018-08-28T13:41:25.808Z,5.77
2018-08-28T13:43:55.162Z,7.50
2018-08-28T13:46:24.458Z,4.70
2018-08-28T13:48:53.823Z,6.97
2018-08-28T13:51:23.198Z,5.67
2018-08-28T13:53:52.600Z,5.23
2018-08-28T13:56:21.892Z,5.33
2018-08-28T13:58:51.186Z,4.97
2018-08-28T14:01:20.506Z,5.87
2018-08-28T14:03:49.802Z,6.27
2018-08-28T14:06:19.110Z,8.70
2018-08-28T14:08:48.429Z,7.27
2018-08-28T14:11:17.804Z,4.73
2018-08-28T14:13:47.102Z,5.40
2018-08-28T14:16:16.423Z,5.27
2018-08-28T14:18:45.727Z,6.07
2018-08-28T14:21:15.057Z,5.30
2018-08-28T14:23:44.447Z,5.80
2018-08-28T14:26:13.839Z,6.27
2018-08-28T14:28:43.147Z,8.60
2018-08-28T14:31:12.474Z,7.33
2018-08-28T14:33:41.768Z,5.83
2018-08-28T14:36:11.089Z,5.33
2018-08-28T14:38:40.370Z,5.53
2018-08-28T14:41:09.791Z,6.10
2018-08-28T14:43:39.071Z,5.17
2018-08-28T14:46:08.710Z,5.30
2018-08-28T14:48:38.146Z,5.37
2018-08-28T14:51:07.936Z,5.27
2018-08-28T14:53:37.347Z,5.30
2018-08-28T14:56:06.690Z,6.23
2018-08-28T14:58:36.010Z,5.77
2018-08-28T15:01:05.359Z,5.40
2018-08-28T15:03:34.684Z,5.67
2018-08-28T15:06:04.378Z,5.73
2018-08-28T15:08:33.711Z,5.73
2018-08-28T15:11:03.067Z,8.40
2018-08-28T15:13:32.490Z,5.87
2018-08-28T15:16:01.831Z,6.50
2018-08-28T15:18:31.216Z,5.80
2018-08-28T15:21:00.907Z,5.53
2018-08-28T15:23:30.250Z,5.53
2018-08-28T15:25:59.576Z,6.83
2018-08-28T15:28:28.968Z,5.57
2018-08-28T15:30:58.423Z,5.10
2018-08-28T15:33:27.819Z,5.33
2018-08-28T15:35:57.127Z,5.90
2018-08-28T15:38:30.085Z,6.43
2018-08-28T15:40:59.786Z,5.67
2018-08-28T15:43:29.730Z,5.13
2018-08-28T15:45:59.057Z,5.60
2018-08-28T15:48:28.382Z,5.73
2018-08-28T15:50:57.729Z,6.57
2018-08-28T15:53:27.059Z,6.07
2018-08-28T15:55:56.390Z,5.63
2018-08-28T15:58:25.711Z,5.87
2018-08-28T16:00:55.015Z,6.33
2018-08-28T16:03:24.339Z,5.60
2018-08-28T16:05:53.659Z,4.20
2018-08-28T16:08:22.993Z,6.20
2018-08-28T16:10:52.289Z,5.50
2018-08-28T16:13:21.599Z,5.70
2018-08-28T16:15:51.308Z,6.00
2018-08-28T16:18:20.583Z,7.10
2018-08-28T16:20:49.901Z,4.90
2018-08-28T16:23:24.398Z,5.30
2018-08-28T16:25:53.763Z,5.53
2018-08-28T16:28:23.091Z,6.13
2018-08-28T16:30:52.382Z,5.53
2018-08-28T16:33:22.045Z,7.63
2018-08-28T16:35:51.381Z,7.33
2018-08-28T16:38:20.841Z,6.67
2018-08-28T16:40:50.198Z,5.47
2018-08-28T16:43:19.815Z,5.30
2018-08-28T16:45:49.175Z,6.47
2018-08-28T16:48:18.464Z,6.77
2018-08-28T16:50:47.836Z,5.90
2018-08-28T16:53:17.130Z,5.23
2018-08-28T16:55:46.575Z,5.47
2018-08-28T16:58:15.860Z,5.60
2018-08-28T17:00:45.207Z,7.07
2018-08-28T17:03:14.541Z,5.53
2018-08-28T17:05:43.882Z,10.27
2018-08-28T17:08:13.269Z,7.37
2018-08-28T17:10:42.926Z,6.53
2018-08-28T17:13:12.263Z,4.93
2018-08-28T17:15:41.611Z,7.20
2018-08-28T17:18:10.945Z,5.50
2018-08-28T17:20:40.284Z,6.60
2018-08-28T17:23:09.603Z,5.20
2018-08-28T17:25:39.389Z,4.60
2018-08-28T17:28:08.694Z,5.43
2018-08-28T17:30:38.012Z,5.30
2018-08-28T17:33:07.348Z,5.87
2018-08-28T17:35:36.635Z,5.37
2018-08-28T17:38:06.691Z,5.73
2018-08-28T17:40:36.051Z,4.90
2018-08-28T17:43:05.515Z,5.47
2018-08-28T17:45:34.839Z,4.63
2018-08-28T17:48:04.158Z,5.67
2018-08-28T17:50:33.551Z,6.40
2018-08-28T17:53:02.878Z,6.07
2018-08-28T17:55:32.239Z,5.93
2018-08-28T17:58:01.611Z,6.17
2018-08-28T18:00:30.919Z,6.10
2018-08-28T18:03:00.253Z,6.40
2018-08-28T18:05:29.554Z,6.60
2018-08-28T18:07:58.874Z,5.47
2018-08-28T18:10:28.187Z,5.10
2018-08-28T18:12:57.515Z,5.80
2018-08-28T18:15:26.979Z,5.87
2018-08-28T18:17:56.362Z,7.37
2018-08-28T18:20:25.707Z,6.43
2018-08-28T18:22:55.079Z,6.30
2018-08-28T18:25:24.390Z,5.63
2018-08-28T18:27:53.702Z,6.03
2018-08-28T18:30:23.030Z,8.07
2018-08-28T18:32:52.339Z,5.60
2018-08-28T18:35:21.691Z,5.83
2018-08-28T18:37:51.254Z,6.13
2018-08-28T18:40:20.549Z,5.80
2018-08-28T18:42:49.967Z,5.77
2018-08-28T18:45:19.296Z,7.77
2018-08-28T18:47:48.619Z,6.80
2018-08-28T18:50:18.084Z,8.53
2018-08-28T18:52:47.561Z,6.67
2018-08-28T18:55:17.145Z,6.97
2018-08-28T18:57:47.106Z,7.33
2018-08-28T19:00:16.456Z,6.27
2018-08-28T19:02:46.006Z,7.70
2018-08-28T19:05:15.598Z,8.53
2018-08-28T19:07:45.218Z,7.70
2018-08-28T19:10:14.530Z,7.50
2018-08-28T19:12:43.967Z,5.90
2018-08-28T19:15:13.458Z,11.90
2018-08-28T19:17:43.123Z,5.77
2018-08-28T19:20:12.452Z,7.37
2018-08-28T19:22:41.887Z,6.70
2018-08-28T19:25:12.217Z,7.43
2018-08-28T19:27:41.803Z,6.90
2018-08-28T19:30:11.685Z,9.00
2018-08-28T19:32:41.170Z,6.57
2018-08-28T19:35:10.621Z,7.87
2018-08-28T19:37:40.003Z,8.53
2018-08-28T19:40:09.333Z,6.57
2018-08-28T19:42:39.680Z,6.10
2018-08-28T19:45:09.144Z,5.63
2018-08-28T19:47:38.720Z,6.73
2018-08-28T19:50:08.570Z,5.83
2018-08-28T19:52:38.153Z,7.20
2018-08-28T19:55:08.298Z,6.77
2018-08-28T19:57:38.019Z,6.40
2018-08-28T20:00:09.002Z,7.83
2018-08-28T20:02:38.840Z,10.67
2018-08-28T20:05:08.530Z,6.90
2018-08-28T20:08:08.791Z,7.03
2018-08-28T20:10:38.526Z,6.73
2018-08-28T20:13:08.007Z,5.90
2018-08-28T20:15:37.395Z,7.53
2018-08-28T20:18:06.812Z,5.90
2018-08-28T20:20:36.320Z,9.87
2018-08-28T20:23:05.744Z,6.07
2018-08-28T20:25:35.226Z,6.03
2018-08-28T20:28:04.496Z,7.10
2018-08-28T20:30:33.836Z,7.70
2018-08-28T20:33:03.124Z,6.73
2018-08-28T20:35:32.471Z,6.27
2018-08-28T20:38:02.159Z,6.27
2018-08-28T20:40:31.575Z,6.87
2018-08-28T20:43:01.043Z,7.50
2018-08-28T20:45:30.409Z,6.50
2018-08-28T20:47:59.905Z,6.57
2018-08-28T20:50:29.429Z,6.53
2018-08-28T20:52:58.805Z,8.30
2018-08-28T20:55:28.271Z,11.07
2018-08-28T20:57:57.816Z,8.40
2018-08-28T21:00:28.454Z,6.10
2018-08-28T21:02:58.183Z,7.03
2018-08-28T21:05:27.570Z,6.53
2018-08-28T21:07:58.538Z,10.80
2018-08-28T21:10:28.342Z,6.20
2018-08-28T21:12:57.742Z,5.97
2018-08-28T21:15:27.031Z,6.70
2018-08-28T21:17:56.352Z,9.57
2018-08-28T21:20:25.662Z,7.27
2018-08-28T21:22:55.047Z,8.87
2018-08-28T21:25:24.377Z,10.73
2018-08-28T21:27:53.735Z,10.20
2018-08-28T21:30:23.051Z,8.57
2018-08-28T21:32:52.427Z,7.43
2018-08-28T21:35:21.816Z,6.20
2018-08-28T21:37:51.113Z,7.80
2018-08-28T21:40:20.417Z,8.37
2018-08-28T21:42:49.802Z,8.70
2018-08-28T21:45:19.143Z,7.80
2018-08-28T21:47:48.487Z,10.70
2018-08-28T21:50:17.765Z,6.67
2018-08-28T21:52:47.096Z,7.53
2018-08-28T21:55:16.436Z,6.33
2018-08-28T21:57:45.762Z,7.07
2018-08-28T22:00:15.198Z,6.87
2018-08-28T22:02:44.593Z,7.40
2018-08-28T22:05:13.894Z,6.53
2018-08-28T22:07:43.568Z,6.50
2018-08-28T22:10:12.875Z,8.17
2018-08-28T22:12:42.230Z,8.10
2018-08-28T22:15:12.703Z,7.80
2018-08-28T22:17:42.915Z,6.27
2018-08-28T22:20:12.194Z,7.50
2018-08-28T22:22:41.526Z,8.87
2018-08-28T22:25:10.814Z,7.03
2018-08-28T22:27:40.123Z,6.90
2018-08-28T22:30:10.194Z,7.20
2018-08-28T22:32:40.960Z,6.00
2018-08-28T22:35:10.227Z,6.80
2018-08-28T22:37:39.543Z,5.80
2018-08-28T22:40:10.335Z,8.10
2018-08-28T22:42:39.793Z,6.10
2018-08-28T22:45:09.180Z,10.30
2018-08-28T22:47:38.484Z,7.83
2018-08-28T22:50:08.004Z,6.47
2018-08-28T22:52:37.315Z,8.83
2018-08-28T22:55:07.118Z,6.93
2018-08-28T22:57:36.873Z,6.87
2018-08-28T23:00:06.994Z,6.67
2018-08-28T23:02:36.308Z,6.83
2018-08-28T23:05:05.610Z,9.23
2018-08-28T23:07:34.891Z,8.13
2018-08-28T23:10:04.227Z,7.00
2018-08-28T23:12:33.536Z,7.00
2018-08-28T23:15:02.840Z,7.50
2018-08-28T23:17:32.138Z,9.90
2018-08-28T23:20:01.472Z,6.40
2018-08-28T23:22:30.853Z,6.50
2018-08-28T23:25:00.176Z,7.17
2018-08-28T23:27:29.878Z,6.97
2018-08-28T23:29:59.170Z,7.57
2018-08-28T23:32:28.445Z,7.00
2018-08-28T23:34:57.768Z,6.53
2018-08-28T23:37:27.042Z,6.97
2018-08-28T23:39:56.453Z,6.20
2018-08-28T23:42:25.768Z,7.00
2018-08-28T23:44:55.294Z,6.87
2018-08-28T23:47:24.730Z,6.87
2018-08-28T23:49:54.399Z,7.57
2018-08-28T23:52:23.659Z,6.93
2018-08-28T23:54:53.002Z,8.97
2018-08-28T23:57:22.370Z,7.07
2018-08-28T23:59:51.702Z,8.20
